Time;durP1;ratioP1;P1;durP2;ratioP2;P2;SDS_P1;SDS_P2;PMS_P1;PMS_P2;Temp;Humidity;BMP_temperature;BMP_pressure;BME280_temperature;BME280_humidity;BME280_pressure;Samples;Min_cycle;Max_cycle;Signal;HPM_P1;HPM_P2
2022/01/22 00:02:10;;;;;;;7.60;4.30;;;;;;;-3.99;70.65;100292.77;84860;1327;24074;-89
2022/01/22 00:04:19;;;;;;;9.80;5.30;;;;;;;-4.01;70.85;100288.29;84828;1325;22599;-79
2022/01/22 00:06:28;;;;;;;14.20;5.80;;;;;;;-4.04;71.11;100284.48;84760;1327;22551;-80
2022/01/22 00:08:38;;;;;;;10.70;6.00;;;;;;;-4.05;71.24;100281.73;84707;1325;24290;-79
2022/01/22 00:10:50;;;;;;;10.10;5.50;;;;;;;-4.07;71.37;100287.34;84698;1328;22696;-80
2022/01/22 00:15:41;;;;;;;10.20;5.30;;;;;;;-4.14;71.72;100286.00;84799;1326;25454;-78
2022/01/22 00:17:52;;;;;;;13.00;6.10;;;;;;;-4.18;72.09;100286.27;84864;1326;22596;-86
2022/01/22 00:20:06;;;;;;;11.40;5.20;;;;;;;-4.21;72.04;100285.17;84897;1326;23860;-89
2022/01/22 00:22:16;;;;;;;12.60;5.40;;;;;;;-4.27;72.12;100284.04;84850;1327;25598;-87
2022/01/22 00:24:36;;;;;;;16.50;7.00;;;;;;;-4.30;72.47;100281.77;84734;1329;22606;-79
2022/01/22 00:26:47;;;;;;;10.80;4.90;;;;;;;-4.32;72.66;100282.58;84692;1329;22592;-79
2022/01/22 00:29:00;;;;;;;7.50;3.90;;;;;;;-4.31;72.95;100291.27;84835;1327;25289;-91
2022/01/22 00:31:10;;;;;;;9.30;3.90;;;;;;;-4.31;73.03;100293.49;84761;1328;25354;-90
2022/01/22 00:33:20;;;;;;;10.60;4.50;;;;;;;-4.31;73.41;100296.05;84786;1327;22683;-79
2022/01/22 00:35:29;;;;;;;11.30;5.70;;;;;;;-4.32;73.65;100290.59;84070;1327;1003610;-80
2022/01/22 00:37:43;;;;;;;11.00;4.80;;;;;;;-4.32;73.67;100290.41;84765;1324;22920;-81
2022/01/22 00:39:55;;;;;;;15.10;4.60;;;;;;;-4.31;74.01;100293.48;84832;1327;22880;-91
2022/01/22 00:42:10;;;;;;;10.90;5.10;;;;;;;-4.32;74.05;100290.92;84092;1327;1016095;-91
2022/01/22 00:44:23;;;;;;;16.70;5.90;;;;;;;-4.36;74.11;100293.39;84800;1327;25532;-91
2022/01/22 00:46:32;;;;;;;12.90;5.50;;;;;;;-4.40;74.06;100292.80;84095;1329;1002952;-91
2022/01/22 00:48:42;;;;;;;11.60;5.60;;;;;;;-4.43;74.22;100295.11;84790;1327;22608;-81
2022/01/22 00:50:53;;;;;;;;;;;;;;;-4.44;74.29;100289.98;84755;1325;22608;-80
2022/01/22 00:53:06;;;;;;;10.90;5.30;;;;;;;-4.47;74.54;100298.27;84755;1327;22619;-79
2022/01/22 00:55:15;;;;;;;8.50;5.10;;;;;;;-4.46;74.66;100300.67;84749;1327;22614;-81
2022/01/22 00:57:25;;;;;;;10.30;5.00;;;;;;;-4.46;75.16;100303.91;84786;1325;22719;-80
2022/01/22 00:59:35;;;;;;;11.10;4.90;;;;;;;-4.44;75.17;100303.93;84678;1330;22608;-80
2022/01/22 01:01:45;;;;;;;11.20;4.80;;;;;;;-4.44;75.00;100300.05;84801;1327;24244;-80
2022/01/22 01:04:00;;;;;;;10.00;5.20;;;;;;;-4.43;75.13;100300.58;84795;1327;25297;-80
2022/01/22 01:06:12;;;;;;;12.10;5.70;;;;;;;-4.43;75.31;100303.14;84768;1327;22614;-79
2022/01/22 01:08:21;;;;;;;10.50;4.90;;;;;;;-4.45;75.50;100301.20;84758;1327;22697;-89
2022/01/22 01:10:33;;;;;;;9.80;4.90;;;;;;;-4.47;75.45;100297.75;84816;1328;23388;-91
2022/01/22 01:12:43;;;;;;;11.90;5.30;;;;;;;-4.51;75.53;100295.98;84709;1329;22756;-82
2022/01/22 01:15:09;;;;;;;10.00;4.70;;;;;;;-4.52;75.51;100292.36;83988;1330;1016019;-80
2022/01/22 01:17:45;;;;;;;7.30;4.10;;;;;;;-4.55;75.91;100294.35;84725;1325;22611;-80
2022/01/22 01:32:16;;;;;;;7.40;4.50;;;;;;;-4.60;76.61;100278.41;84661;1332;22627;-79
2022/01/22 01:34:26;;;;;;;7.90;5.30;;;;;;;-4.62;76.48;100280.75;84737;1321;22632;-88
2022/01/22 01:36:33;;;;;;;;;;;;;;;-4.65;76.55;100281.03;84720;1330;22612;-89
2022/01/22 01:38:50;;;;;;;9.10;5.10;;;;;;;-4.69;76.78;100277.20;84735;1329;22612;-89
2022/01/22 01:41:06;;;;;;;8.00;4.40;;;;;;;-4.70;77.26;100277.34;84728;1332;22756;-88
2022/01/22 01:43:23;;;;;;;10.20;4.60;;;;;;;-4.70;77.40;100273.77;84752;1330;22642;-88
2022/01/22 01:45:34;;;;;;;11.60;5.60;;;;;;;-4.71;77.64;100276.64;84708;1329;22618;-89
2022/01/22 01:47:49;;;;;;;5.70;4.00;;;;;;;-4.70;77.78;100271.55;84763;1332;22855;-79
2022/01/22 01:50:00;;;;;;;9.40;4.80;;;;;;;-4.69;77.68;100261.19;84564;1325;22641;-78
2022/01/22 01:52:15;;;;;;;11.20;4.80;;;;;;;-4.67;77.62;100261.75;84693;1330;22625;-79
2022/01/22 01:54:33;;;;;;;8.60;5.30;;;;;;;-4.64;77.74;100269.46;84725;1330;22599;-88
2022/01/22 01:59:10;;;;;;;13.60;4.90;;;;;;;-4.57;78.23;100275.92;84790;1330;23612;-90
2022/01/22 02:01:19;;;;;;;9.00;4.00;;;;;;;-4.55;78.01;100272.38;84697;1328;24383;-90
2022/01/22 02:03:29;;;;;;;8.60;4.20;;;;;;;-4.52;78.14;100279.09;84769;1330;22612;-89
2022/01/22 02:05:41;;;;;;;7.80;3.80;;;;;;;-4.50;77.91;100277.09;84626;1333;22607;-89
2022/01/22 02:07:55;;;;;;;8.50;4.30;;;;;;;-4.49;77.94;100278.13;84673;1332;23945;-80
2022/01/22 02:10:09;;;;;;;6.90;3.80;;;;;;;-4.50;77.96;100275.21;84501;1336;22734;-78
2022/01/22 02:12:33;;;;;;;9.80;4.10;;;;;;;-4.48;78.40;100272.55;84697;1329;22607;-78
2022/01/22 02:24:31;;;;;;;8.50;4.20;;;;;;;-4.18;78.16;100269.92;84740;1327;22606;-90
2022/01/22 02:26:43;;;;;;;10.30;4.40;;;;;;;-4.13;78.00;100265.75;84017;1330;1003565;-91
2022/01/22 02:28:53;;;;;;;9.30;4.00;;;;;;;-4.12;78.00;100260.67;84754;1327;24249;-89
2022/01/22 02:31:10;;;;;;;9.50;4.90;;;;;;;-4.12;77.92;100258.45;84761;1329;22595;-92
2022/01/22 02:33:32;;;;;;;12.00;3.90;;;;;;;-4.14;77.72;100254.49;84642;1324;22820;-79
2022/01/22 02:35:48;;;;;;;6.00;3.20;;;;;;;-4.19;77.71;100250.83;84599;1324;22756;-79
2022/01/22 02:38:03;;;;;;;9.10;3.80;;;;;;;-4.22;77.61;100252.98;84743;1327;23927;-91
2022/01/22 02:40:23;;;;;;;6.40;3.80;;;;;;;-4.26;77.62;100256.64;84756;1327;24723;-88
2022/01/22 02:42:35;;;;;;;7.60;4.00;;;;;;;-4.28;77.65;100253.69;84275;1328;717262;-89
2022/01/22 02:44:46;;;;;;;7.60;3.30;;;;;;;-4.28;77.79;100255.92;84767;1330;23911;-80
2022/01/22 02:46:56;;;;;;;5.40;3.30;;;;;;;-4.27;77.91;100258.85;84753;1328;25472;-79
2022/01/22 02:49:04;;;;;;;;;;;;;;;-4.28;77.86;100257.30;84745;1327;25411;-79
2022/01/22 02:51:17;;;;;;;9.30;4.00;;;;;;;-4.30;78.04;100259.63;83949;1332;1003301;-79
2022/01/22 02:53:28;;;;;;;17.20;4.70;;;;;;;-4.31;77.82;100258.74;84800;1327;22614;-80
2022/01/22 02:55:39;;;;;;;10.30;4.10;;;;;;;-4.33;78.10;100254.45;84675;1330;26605;-79
2022/01/22 02:57:50;;;;;;;;;;;;;;;-4.36;77.91;100257.97;84755;1328;23271;-90
2022/01/22 03:00:00;;;;;;;8.20;3.70;;;;;;;-4.41;77.96;100259.40;84025;1328;1004082;-90
2022/01/22 03:02:08;;;;;;;;;;;;;;;-4.44;77.88;100263.95;84815;1327;22573;-90
2022/01/22 03:04:20;;;;;;;18.10;4.70;;;;;;;-4.51;77.92;100269.59;84768;1327;24164;-90
2022/01/22 03:06:30;;;;;;;7.90;3.60;;;;;;;-4.54;78.03;100269.16;84779;1328;23232;-90
2022/01/22 03:08:45;;;;;;;6.40;3.30;;;;;;;-4.58;77.99;100280.15;84801;1330;25456;-79
2022/01/22 03:10:55;;;;;;;15.20;5.00;;;;;;;-4.61;77.93;100276.19;84779;1328;22628;-78
2022/01/22 03:13:21;;;;;;;6.50;3.50;;;;;;;-4.60;78.18;100269.39;84733;1329;22599;-90
2022/01/22 03:15:50;;;;;;;7.60;3.20;;;;;;;-4.58;78.33;100270.95;84795;1330;25422;-90
2022/01/22 03:18:03;;;;;;;8.10;3.50;;;;;;;-4.55;78.19;100269.14;84695;1325;22595;-80
2022/01/22 03:20:34;;;;;;;9.90;4.00;;;;;;;-4.54;78.24;100271.04;84736;1327;22595;-77
2022/01/22 03:23:06;;;;;;;7.90;3.50;;;;;;;-4.53;78.25;100277.02;84703;1330;22600;-78
2022/01/22 03:27:43;;;;;;;6.50;3.10;;;;;;;-4.53;78.18;100278.04;84665;1327;22760;-89
2022/01/22 03:29:53;;;;;;;8.90;3.80;;;;;;;-4.54;78.28;100281.77;84689;1329;25301;-91
2022/01/22 03:32:04;;;;;;;3.90;2.50;;;;;;;-4.56;78.15;100283.10;84774;1329;22632;-90
2022/01/22 03:34:14;;;;;;;6.30;3.40;;;;;;;-4.60;78.04;100280.79;84809;1332;22619;-93
2022/01/22 03:36:29;;;;;;;5.90;2.90;;;;;;;-4.63;78.04;100277.48;84797;1331;22635;-90
2022/01/22 03:38:39;;;;;;;6.00;3.40;;;;;;;-4.63;78.25;100276.63;84835;1327;22816;-78
2022/01/22 03:40:54;;;;;;;4.90;2.60;;;;;;;-4.63;78.32;100281.41;84669;1329;22622;-78
2022/01/22 03:43:03;;;;;;;5.90;2.90;;;;;;;-4.60;78.35;100277.38;84675;1330;24270;-92
2022/01/22 03:45:14;;;;;;;9.50;2.70;;;;;;;-4.58;78.29;100275.88;84877;1328;22596;-91
2022/01/22 03:47:26;;;;;;;10.90;3.30;;;;;;;-4.56;78.47;100279.70;84873;1327;22626;-93
2022/01/22 03:49:36;;;;;;;11.70;3.50;;;;;;;-4.53;78.28;100282.98;84781;1328;22615;-78
2022/01/22 03:51:45;;;;;;;9.20;3.30;;;;;;;-4.51;78.37;100292.23;84067;1327;1003940;-78
2022/01/22 03:53:58;;;;;;;5.50;2.20;;;;;;;-4.52;78.49;100292.54;84805;1327;22613;-91
2022/01/22 03:56:09;;;;;;;8.80;4.60;;;;;;;-4.53;78.36;100296.77;84830;1324;22682;-91
2022/01/22 03:58:18;;;;;;;10.90;4.00;;;;;;;-4.54;78.26;100302.70;84808;1326;22605;-79
2022/01/22 04:00:27;;;;;;;5.50;2.90;;;;;;;-4.55;78.24;100300.47;84774;1330;22770;-78
2022/01/22 04:05:12;;;;;;;9.20;3.50;;;;;;;-4.57;78.45;100299.58;84655;1332;22605;-93
2022/01/22 04:08:06;;;;;;;6.10;2.90;;;;;;;-4.56;78.19;100295.52;84835;1329;22952;-91
2022/01/22 04:10:17;;;;;;;7.50;3.30;;;;;;;-4.54;78.33;100302.88;84032;1326;1002973;-78
2022/01/22 04:12:34;;;;;;;6.30;3.20;;;;;;;-4.51;78.38;100299.88;84749;1328;22586;-78
2022/01/22 04:14:49;;;;;;;7.80;3.60;;;;;;;-4.51;78.25;100300.74;84771;1329;22696;-80
2022/01/22 04:17:09;;;;;;;6.00;2.90;;;;;;;-4.49;78.18;100308.42;84658;1332;25319;-79
2022/01/22 04:26:52;;;;;;;8.20;2.70;;;;;;;-4.58;78.38;100315.73;84330;1330;1003731;-78
2022/01/22 04:29:04;;;;;;;5.70;3.00;;;;;;;-4.61;78.30;100318.05;84763;1330;24255;-92
2022/01/22 04:31:13;;;;;;;8.70;3.50;;;;;;;-4.63;78.40;100319.55;84829;1327;22593;-93
2022/01/22 04:33:23;;;;;;;7.30;3.60;;;;;;;-4.62;78.37;100321.94;84725;1331;22609;-91
2022/01/22 04:35:35;;;;;;;9.80;3.20;;;;;;;-4.61;78.51;100327.58;84899;1327;22612;-90
2022/01/22 04:37:45;;;;;;;6.80;2.70;;;;;;;-4.60;78.34;100328.95;84855;1330;24193;-79
2022/01/22 04:39:54;;;;;;;5.50;2.80;;;;;;;-4.59;78.39;100331.52;84701;1329;23940;-78
2022/01/22 04:42:04;;;;;;;11.30;5.70;;;;;;;-4.59;78.28;100336.98;84666;1325;22892;-78
2022/01/22 04:44:14;;;;;;;6.80;4.40;;;;;;;-4.59;78.21;100343.79;84695;1328;24244;-77
2022/01/22 04:46:36;;;;;;;11.30;3.40;;;;;;;-4.62;78.25;100342.03;84658;1330;22622;-78
2022/01/22 04:49:05;;;;;;;7.90;2.90;;;;;;;-4.63;78.24;100351.52;84693;1330;22837;-77
2022/01/22 04:56:10;;;;;;;5.70;3.00;;;;;;;-4.73;78.28;100361.68;84829;1327;22596;-91
2022/01/22 04:58:23;;;;;;;7.80;3.00;;;;;;;-4.73;78.29;100364.75;84848;1327;22593;-90
2022/01/22 05:00:33;;;;;;;11.10;3.20;;;;;;;-4.72;78.47;100366.16;84850;1327;22599;-91
2022/01/22 05:02:45;;;;;;;7.00;2.90;;;;;;;-4.67;78.65;100364.05;84859;1327;22680;-79
2022/01/22 05:04:57;;;;;;;5.80;3.70;;;;;;;-4.59;78.45;100366.94;84775;1326;22607;-77
2022/01/22 05:07:09;;;;;;;12.50;4.20;;;;;;;-4.52;78.50;100364.55;84737;1327;22587;-77
2022/01/22 05:09:19;;;;;;;9.10;4.00;;;;;;;-4.47;78.49;100366.20;84795;1327;22626;-89
2022/01/22 05:11:32;;;;;;;9.30;3.30;;;;;;;-4.45;78.40;100361.48;84684;1321;23045;-89
2022/01/22 05:13:41;;;;;;;10.60;3.30;;;;;;;-4.42;78.41;100357.30;84726;1330;22946;-77
2022/01/22 05:15:50;;;;;;;10.70;3.80;;;;;;;-4.41;78.24;100356.29;84796;1327;22625;-78
2022/01/22 05:17:59;;;;;;;11.10;4.60;;;;;;;-4.42;78.27;100357.62;84096;1327;1002817;-78
2022/01/22 05:20:13;;;;;;;;;;;;;;;-4.46;78.17;100358.23;84622;1333;23959;-77
2022/01/22 05:22:40;;;;;;;14.30;4.40;;;;;;;-4.50;78.41;100366.31;84750;1330;24256;-90
2022/01/22 05:24:53;;;;;;;13.50;4.10;;;;;;;-4.49;78.23;100369.73;84038;1329;1002832;-89
2022/01/22 05:27:28;;;;;;;10.00;4.30;;;;;;;-4.46;78.36;100370.82;84746;1325;22695;-90
2022/01/22 05:32:25;;;;;;;9.80;4.40;;;;;;;-4.32;78.49;100371.13;84750;1327;24013;-76
2022/01/22 05:37:04;;;;;;;12.80;5.60;;;;;;;-4.09;78.48;100370.94;84804;1328;23987;-90
2022/01/22 05:39:14;;;;;;;11.80;4.60;;;;;;;-4.01;78.36;100375.20;84848;1327;22639;-88
2022/01/22 05:41:23;;;;;;;10.20;3.60;;;;;;;-3.95;78.31;100378.73;84806;1328;22596;-90
2022/01/22 05:43:32;;;;;;;10.50;3.60;;;;;;;-3.90;78.19;100384.45;84821;1327;22584;-87
2022/01/22 05:45:41;;;;;;;5.90;2.60;;;;;;;-3.88;78.04;100384.68;84784;1330;22591;-89
2022/01/22 05:47:51;;;;;;;8.80;3.60;;;;;;;-3.85;78.02;100386.42;84812;1327;22662;-91
2022/01/22 05:50:05;;;;;;;11.70;4.60;;;;;;;-3.82;77.94;100389.73;84828;1327;23901;-88
2022/01/22 05:52:20;;;;;;;7.50;2.90;;;;;;;-3.78;77.95;100392.89;84797;1327;22622;-89
2022/01/22 05:54:51;;;;;;;9.00;3.50;;;;;;;-3.76;77.80;100397.69;84731;1330;23605;-90
2022/01/22 05:59:39;;;;;;;5.80;2.80;;;;;;;-3.72;77.76;100408.86;84099;1327;1002912;-89
2022/01/22 06:01:52;;;;;;;9.50;2.70;;;;;;;-3.68;77.73;100413.55;84716;1329;23968;-88
2022/01/22 06:04:01;;;;;;;6.50;2.20;;;;;;;-3.64;77.81;100417.38;84802;1328;25000;-90
2022/01/22 06:06:10;;;;;;;7.60;2.60;;;;;;;-3.57;77.83;100422.79;84781;1327;23230;-90
2022/01/22 06:08:21;;;;;;;7.80;2.20;;;;;;;-3.52;77.79;100430.06;84774;1327;24251;-77
2022/01/22 06:10:33;;;;;;;4.40;2.10;;;;;;;-3.48;77.86;100427.58;84786;1328;22991;-77
2022/01/22 06:12:56;;;;;;;5.60;2.10;;;;;;;-3.44;77.77;100433.98;84779;1330;22601;-89
2022/01/22 06:15:06;;;;;;;4.20;1.90;;;;;;;-3.38;77.69;100438.19;84875;1325;22602;-91
2022/01/22 06:17:15;;;;;;;6.20;2.00;;;;;;;-3.32;77.63;100439.65;84755;1330;23104;-89
2022/01/22 06:19:24;;;;;;;5.20;2.70;;;;;;;-3.28;77.49;100439.56;84758;1330;22605;-77
2022/01/22 06:21:34;;;;;;;5.60;2.50;;;;;;;-3.26;77.46;100446.92;84683;1329;22627;-77
2022/01/22 06:23:45;;;;;;;7.60;2.20;;;;;;;-3.25;77.37;100449.70;84731;1329;22633;-76
2022/01/22 06:25:58;;;;;;;6.60;1.90;;;;;;;-3.25;77.19;100451.56;84754;1327;22680;-77
2022/01/22 06:28:07;;;;;;;5.00;2.10;;;;;;;-3.25;77.10;100447.63;84657;1330;22743;-91
2022/01/22 06:30:19;;;;;;;8.60;1.90;;;;;;;-3.27;77.04;100448.98;84669;1333;23748;-91
2022/01/22 06:32:28;;;;;;;5.10;2.10;;;;;;;-3.28;76.88;100444.34;84816;1328;22723;-90
2022/01/22 06:34:37;;;;;;;6.70;2.10;;;;;;;-3.27;76.94;100442.48;84780;1327;22713;-78
2022/01/22 06:36:46;;;;;;;9.50;3.50;;;;;;;-3.26;76.97;100445.05;84745;1324;22790;-77
2022/01/22 06:38:58;;;;;;;7.70;2.30;;;;;;;-3.24;76.90;100452.96;84780;1328;22617;-91
2022/01/22 06:43:34;;;;;;;7.80;2.00;;;;;;;-3.14;77.23;100468.67;84832;1330;22904;-76
2022/01/22 06:45:43;;;;;;;7.90;2.40;;;;;;;-3.09;77.18;100476.61;84727;1330;22664;-77
2022/01/22 06:47:53;;;;;;;4.30;2.10;;;;;;;-3.04;77.15;100476.17;84767;1329;24402;-76
2022/01/22 06:50:02;;;;;;;6.10;2.40;;;;;;;-3.02;77.09;100477.58;84713;1330;22605;-77
2022/01/22 06:52:11;;;;;;;4.00;1.90;;;;;;;-3.00;77.07;100484.13;84757;1330;22586;-76
2022/01/22 06:54:21;;;;;;;5.10;2.80;;;;;;;-2.97;77.06;100484.15;84025;1326;1003112;-77
2022/01/22 06:56:34;;;;;;;6.00;2.20;;;;;;;-2.95;77.08;100481.98;84024;1330;1003108;-78
2022/01/22 06:58:44;;;;;;;11.20;3.40;;;;;;;-2.94;76.94;100479.11;84822;1327;22649;-89
2022/01/22 07:00:53;;;;;;;4.60;2.10;;;;;;;-2.92;76.90;100485.45;84780;1330;22589;-90
2022/01/22 07:03:05;;;;;;;6.90;3.00;;;;;;;-2.91;76.90;100482.39;84794;1328;22886;-77
2022/01/22 07:05:15;;;;;;;6.00;2.60;;;;;;;-2.90;76.76;100489.26;84756;1324;22873;-76
2022/01/22 07:07:24;;;;;;;6.00;2.20;;;;;;;-2.90;76.72;100490.80;84755;1326;22596;-76
2022/01/22 07:09:33;;;;;;;6.90;2.40;;;;;;;-2.88;76.69;100493.73;84848;1329;22643;-91
2022/01/22 07:11:44;;;;;;;4.50;1.70;;;;;;;-2.84;76.86;100500.80;84822;1327;22634;-90
2022/01/22 07:13:53;;;;;;;5.70;2.50;;;;;;;-2.80;76.92;100504.29;84840;1327;25617;-92
2022/01/22 07:16:06;;;;;;;4.60;2.50;;;;;;;-2.76;76.90;100508.61;84841;1330;22822;-91
2022/01/22 07:18:17;;;;;;;10.20;4.50;;;;;;;-2.71;76.96;100507.34;84798;1328;22643;-75
2022/01/22 07:20:31;;;;;;;6.40;2.80;;;;;;;-2.65;76.99;100515.65;84800;1327;22620;-86
2022/01/22 07:22:50;;;;;;;4.70;2.40;;;;;;;-2.59;77.01;100508.42;84747;1327;25356;-82
2022/01/22 07:24:59;;;;;;;8.30;2.60;;;;;;;-2.53;76.95;100510.55;84755;1327;22629;-76
2022/01/22 07:27:08;;;;;;;6.60;2.80;;;;;;;-2.49;76.81;100507.22;84743;1330;22598;-75
2022/01/22 07:29:17;;;;;;;5.80;2.40;;;;;;;-2.47;76.83;100510.66;84727;1327;22700;-76
2022/01/22 07:31:28;;;;;;;5.50;2.40;;;;;;;-2.46;76.64;100507.45;84765;1330;22868;-77
2022/01/22 07:33:39;;;;;;;4.30;2.50;;;;;;;-2.42;76.71;100519.13;84749;1327;22770;-90
2022/01/22 07:35:53;;;;;;;7.60;2.80;;;;;;;-2.39;76.70;100520.37;84767;1329;22614;-76
2022/01/22 07:38:02;;;;;;;6.10;2.60;;;;;;;-2.34;76.72;100520.11;84795;1327;22602;-86
2022/01/22 07:40:15;;;;;;;4.70;2.00;;;;;;;-2.27;76.70;100523.98;84771;1327;22769;-85
2022/01/22 07:42:28;;;;;;;8.40;2.70;;;;;;;-2.21;76.79;100528.70;84770;1326;22805;-87
2022/01/22 07:44:41;;;;;;;7.80;3.00;;;;;;;-2.15;76.64;100532.39;84763;1330;22888;-75
2022/01/22 07:46:53;;;;;;;6.70;3.40;;;;;;;-2.13;76.52;100541.13;84765;1327;22600;-75
2022/01/22 07:49:05;;;;;;;8.10;3.10;;;;;;;-2.10;76.42;100550.08;84732;1328;25304;-76
2022/01/22 07:51:16;;;;;;;9.80;3.50;;;;;;;-2.07;76.40;100555.92;84704;1329;22599;-83
2022/01/22 07:53:27;;;;;;;6.70;2.60;;;;;;;-2.04;76.45;100564.86;84753;1330;22829;-76
2022/01/22 07:55:39;;;;;;;12.70;4.70;;;;;;;-1.99;76.47;100574.67;84754;1327;25315;-75
2022/01/22 07:57:53;;;;;;;7.20;3.60;;;;;;;-1.97;76.37;100581.03;84775;1322;22608;-86
2022/01/22 08:00:05;;;;;;;8.30;3.10;;;;;;;-1.97;76.44;100584.83;84787;1327;22663;-86
2022/01/22 08:02:20;;;;;;;6.60;2.80;;;;;;;-1.94;76.37;100588.62;84757;1330;24306;-87
2022/01/22 08:04:49;;;;;;;5.10;2.60;;;;;;;-1.88;76.52;100587.15;84747;1321;22646;-75
2022/01/22 08:07:08;;;;;;;13.80;4.40;;;;;;;-1.85;76.34;100584.14;84762;1329;24311;-74
2022/01/22 08:09:24;;;;;;;9.80;4.30;;;;;;;-1.81;76.62;100592.77;84767;1325;22726;-75
2022/01/22 08:11:48;;;;;;;10.50;4.00;;;;;;;-1.76;76.60;100594.03;84553;1334;22824;-75
2022/01/22 08:13:58;;;;;;;11.10;4.30;;;;;;;-1.73;76.70;100599.89;84685;1331;22601;-86
2022/01/22 08:16:14;;;;;;;5.40;3.20;;;;;;;-1.69;76.65;100600.46;84765;1326;22621;-87
2022/01/22 08:18:28;;;;;;;11.10;3.80;;;;;;;-1.65;76.77;100604.80;84746;1328;22604;-75
2022/01/22 08:20:38;;;;;;;7.70;3.40;;;;;;;-1.64;76.77;100612.52;84771;1328;23893;-85
2022/01/22 08:22:51;;;;;;;10.70;4.80;;;;;;;-1.62;76.80;100620.41;84769;1327;22638;-84
2022/01/22 08:25:04;;;;;;;11.10;4.30;;;;;;;-1.62;76.74;100623.33;84798;1328;22780;-76
2022/01/22 08:27:22;;;;;;;11.80;5.20;;;;;;;-1.60;76.77;100628.83;84050;1328;1002995;-75
2022/01/22 08:29:31;;;;;;;10.80;4.50;;;;;;;-1.56;76.82;100632.31;84667;1332;25323;-86
2022/01/22 08:32:04;;;;;;;11.70;6.50;;;;;;;-1.52;76.71;100635.80;84662;1325;22668;-75
2022/01/22 08:36:41;;;;;;;24.20;10.20;;;;;;;-1.33;76.98;100649.77;84675;1330;23956;-74
2022/01/22 08:38:50;;;;;;;24.70;11.50;;;;;;;-1.24;77.14;100655.20;84754;1327;23997;-86
2022/01/22 08:41:01;;;;;;;23.70;9.90;;;;;;;-1.16;77.05;100659.09;84784;1326;25443;-85
2022/01/22 08:43:13;;;;;;;21.70;8.50;;;;;;;-1.09;77.01;100666.70;84651;1330;22619;-75
2022/01/22 08:45:28;;;;;;;25.50;10.00;;;;;;;-1.06;76.84;100676.86;84627;1332;22617;-75
2022/01/22 08:47:48;;;;;;;15.20;7.20;;;;;;;-1.02;76.81;100685.48;84617;1332;25425;-76
2022/01/22 08:49:57;;;;;;;10.10;5.00;;;;;;;-0.94;76.96;100680.96;84743;1325;23313;-77
2022/01/22 08:52:13;;;;;;;10.30;4.50;;;;;;;-0.84;77.07;100682.30;84634;1331;23952;-76
2022/01/22 08:54:25;;;;;;;10.60;4.60;;;;;;;-0.74;76.98;100680.20;84101;1330;1002647;-86
2022/01/22 08:56:35;;;;;;;12.10;4.50;;;;;;;-0.59;76.79;100674.90;84664;1332;22605;-86
2022/01/22 08:58:48;;;;;;;11.60;4.60;;;;;;;-0.33;77.14;100675.90;84783;1327;22608;-76
2022/01/22 09:00:57;;;;;;;12.70;6.00;;;;;;;-0.13;76.67;100679.89;84661;1332;22617;-76
2022/01/22 09:03:06;;;;;;;11.80;5.80;;;;;;;0.02;76.25;100690.67;84752;1328;22584;-86
2022/01/22 09:05:20;;;;;;;11.90;5.40;;;;;;;0.20;76.26;100694.27;84758;1327;22555;-85
2022/01/22 09:07:29;;;;;;;11.50;4.90;;;;;;;0.35;75.86;100702.30;84756;1327;24194;-87
2022/01/22 09:09:39;;;;;;;6.90;4.20;;;;;;;0.44;75.20;100709.94;84658;1330;25949;-77
2022/01/22 09:11:52;;;;;;;8.80;4.30;;;;;;;0.43;74.45;100714.55;84770;1328;22639;-77
2022/01/22 09:14:01;;;;;;;7.70;4.60;;;;;;;0.46;74.55;100713.56;84783;1329;22610;-87
2022/01/22 09:16:13;;;;;;;7.90;3.80;;;;;;;0.59;74.44;100716.92;84756;1327;25531;-87
2022/01/22 09:18:25;;;;;;;13.60;4.50;;;;;;;0.62;74.02;100720.04;84789;1330;23924;-86
2022/01/22 09:21:01;;;;;;;8.10;4.20;;;;;;;0.58;73.76;100720.01;84787;1328;24135;-87
2022/01/22 09:23:11;;;;;;;6.70;3.80;;;;;;;0.55;73.49;100718.42;84751;1327;22606;-76
2022/01/22 09:25:20;;;;;;;9.00;3.60;;;;;;;0.52;73.14;100720.47;84763;1327;25639;-76
2022/01/22 09:27:30;;;;;;;5.30;3.50;;;;;;;0.46;72.76;100731.73;84739;1330;25956;-76
2022/01/22 09:29:42;;;;;;;3.70;2.40;;;;;;;0.54;71.67;100735.94;84595;1332;22602;-76
2022/01/22 09:31:55;;;;;;;5.80;2.30;;;;;;;0.67;71.45;100735.34;84651;1332;25852;-76
2022/01/22 09:34:09;;;;;;;3.80;2.00;;;;;;;1.17;71.43;100742.75;84745;1327;22608;-77
2022/01/22 09:36:19;;;;;;;3.90;2.60;;;;;;;1.41;70.61;100741.34;84749;1328;22690;-76
2022/01/22 09:38:31;;;;;;;4.80;2.00;;;;;;;1.82;68.72;100738.27;84764;1324;22611;-76
2022/01/22 09:40:44;;;;;;;2.20;1.80;;;;;;;2.29;67.34;100735.63;84742;1327;22623;-77
2022/01/22 09:42:53;;;;;;;4.60;1.70;;;;;;;2.94;66.71;100738.58;84682;1330;23898;-87
2022/01/22 09:45:02;;;;;;;3.80;1.40;;;;;;;3.57;65.69;100737.05;84761;1327;25196;-87
2022/01/22 09:47:15;;;;;;;3.40;1.60;;;;;;;4.19;64.23;100741.08;84670;1329;23148;-87
2022/01/22 09:49:24;;;;;;;2.10;1.40;;;;;;;4.80;62.57;100744.09;84809;1328;22607;-76
2022/01/22 09:51:34;;;;;;;3.40;1.70;;;;;;;5.35;60.79;100751.01;84761;1330;24276;-76
2022/01/22 09:53:47;;;;;;;4.50;2.00;;;;;;;5.87;59.72;100751.45;84692;1330;22621;-76
2022/01/22 09:56:00;;;;;;;8.00;4.40;;;;;;;6.35;58.22;100752.73;84749;1327;22765;-76
2022/01/22 09:58:12;;;;;;;3.80;2.10;;;;;;;6.69;57.96;100756.38;84685;1325;22610;-87
2022/01/22 10:00:23;;;;;;;3.10;1.80;;;;;;;7.11;55.68;100760.35;84660;1332;25515;-87
2022/01/22 10:02:36;;;;;;;2.30;1.60;;;;;;;6.97;54.28;100766.15;84771;1327;22605;-87
2022/01/22 10:04:52;;;;;;;3.80;1.70;;;;;;;6.51;53.63;100774.16;84746;1327;22694;-88
2022/01/22 10:07:05;;;;;;;3.00;1.80;;;;;;;6.05;53.20;100777.56;84694;1327;24352;-88
2022/01/22 10:09:25;;;;;;;2.70;1.90;;;;;;;5.86;54.43;100787.14;84750;1327;22714;-76
2022/01/22 10:11:35;;;;;;;3.40;2.00;;;;;;;5.57;54.05;100793.70;84631;1330;22629;-76
2022/01/22 10:13:50;;;;;;;1.80;1.50;;;;;;;5.26;54.44;100798.50;84748;1329;25333;-79
2022/01/22 10:16:01;;;;;;;2.70;2.10;;;;;;;5.13;54.74;100801.55;84744;1325;22711;-77
2022/01/22 10:18:13;;;;;;;3.30;2.70;;;;;;;5.03;54.72;100804.06;84754;1328;24187;-76
2022/01/22 10:20:37;;;;;;;3.50;2.00;;;;;;;4.78;53.98;100804.77;84771;1327;22612;-77
2022/01/22 10:22:49;;;;;;;3.20;1.90;;;;;;;4.39;54.22;100811.77;84791;1327;25552;-88
2022/01/22 10:24:59;;;;;;;3.60;1.70;;;;;;;4.08;54.59;100814.34;84773;1329;22628;-89
2022/01/22 10:27:27;;;;;;;1.90;1.60;;;;;;;3.77;54.85;100823.61;84696;1329;22603;-88
2022/01/22 10:29:36;;;;;;;2.00;1.60;;;;;;;3.43;54.57;100822.13;84746;1327;23822;-76
2022/01/22 10:31:48;;;;;;;2.30;1.70;;;;;;;3.29;55.48;100827.31;84770;1327;22615;-77
2022/01/22 10:34:11;;;;;;;2.20;1.40;;;;;;;3.26;56.02;100832.49;84804;1328;22613;-88
2022/01/22 10:36:24;;;;;;;1.50;1.30;;;;;;;3.24;56.47;100835.09;84750;1327;22634;-89
2022/01/22 10:38:40;;;;;;;3.60;1.80;;;;;;;3.10;55.27;100844.05;84768;1329;24262;-90
2022/01/22 10:40:56;;;;;;;1.80;1.60;;;;;;;2.90;55.92;100855.58;84774;1327;22622;-90
2022/01/22 10:43:28;;;;;;;7.30;2.40;;;;;;;2.76;56.70;100859.02;84501;1329;426972;-76
2022/01/22 10:45:41;;;;;;;5.80;2.30;;;;;;;2.58;56.79;100857.27;84730;1328;24243;-76
2022/01/22 10:47:51;;;;;;;3.80;2.30;;;;;;;2.43;57.04;100863.92;84785;1327;22733;-92
2022/01/22 10:50:21;;;;;;;5.00;2.50;;;;;;;2.21;56.56;100867.46;84757;1327;22731;-90
2022/01/22 10:52:31;;;;;;;2.70;2.20;;;;;;;1.90;57.17;100872.98;84740;1328;22594;-90
2022/01/22 10:54:41;;;;;;;2.50;2.00;;;;;;;1.73;57.36;100876.69;84723;1329;22616;-76
2022/01/22 10:56:50;;;;;;;4.10;2.40;;;;;;;1.60;58.16;100877.11;84052;1328;1003519;-74
2022/01/22 10:59:06;;;;;;;5.80;2.90;;;;;;;1.51;58.40;100878.77;84777;1327;22622;-76
2022/01/22 11:01:17;;;;;;;6.90;2.30;;;;;;;1.43;58.39;100883.88;84665;1329;22665;-75
2022/01/22 11:03:28;;;;;;;2.10;1.80;;;;;;;1.37;58.45;100880.91;84796;1327;22623;-88
2022/01/22 11:05:41;;;;;;;3.50;2.30;;;;;;;1.31;58.41;100893.58;84781;1327;22602;-90
2022/01/22 11:07:53;;;;;;;7.10;2.30;;;;;;;1.25;58.93;100894.04;84784;1329;22700;-90
2022/01/22 11:10:06;;;;;;;2.80;2.30;;;;;;;1.15;58.69;100902.72;84706;1329;22625;-89
2022/01/22 11:12:18;;;;;;;4.30;2.00;;;;;;;1.05;59.02;100902.80;84589;1327;22628;-89
2022/01/22 11:14:30;;;;;;;2.90;1.70;;;;;;;0.97;59.13;100904.45;84717;1329;22593;-76
2022/01/22 11:16:44;;;;;;;2.20;1.60;;;;;;;0.90;59.05;100909.02;84618;1332;22741;-75